sensor_id;sensor_type;location;lat;lon;timestamp;pressure;altitude;pressure_sealevel;temperature;humidity
39105;BME280;46464;51.154;13.812;2023-02-20T00:00:18;52684.31;;;-146.96;84.12
39105;BME280;46464;51.154;13.812;2023-02-20T00:02:51;52708.75;;;-146.96;84.17
39105;BME280;46464;51.154;13.812;2023-02-20T00:05:18;52710.78;;;-146.96;84.22
39105;BME280;46464;51.154;13.812;2023-02-20T00:07:45;52690.44;;;-146.96;84.25
39105;BME280;46464;51.154;13.812;2023-02-20T00:10:12;52659.91;;;-146.96;83.48
39105;BME280;46464;51.154;13.812;2023-02-20T00:12:39;52678.22;;;-146.96;83.01
39105;BME280;46464;51.154;13.812;2023-02-20T00:15:05;52692.47;;;-146.96;82.32
39105;BME280;46464;51.154;13.812;2023-02-20T00:17:32;52737.22;;;-146.96;82.30
39105;BME280;46464;51.154;13.812;2023-02-20T00:19:58;52700.59;;;-146.96;82.19
39105;BME280;46464;51.154;13.812;2023-02-20T00:22:25;52657.88;;;-146.96;81.55
39105;BME280;46464;51.154;13.812;2023-02-20T00:24:51;52651.75;;;-146.96;82.30
39105;BME280;46464;51.154;13.812;2023-02-20T00:27:18;52680.25;;;-146.96;82.47
39105;BME280;46464;51.154;13.812;2023-02-20T00:29:45;52698.56;;;-146.96;82.90
39105;BME280;46464;51.154;13.812;2023-02-20T00:32:12;52668.03;;;-146.96;82.99
39105;BME280;46464;51.154;13.812;2023-02-20T00:34:48;52672.13;;;-146.96;82.45
39105;BME280;46464;51.154;13.812;2023-02-20T00:37:15;52653.81;;;-146.96;82.99
39105;BME280;46464;51.154;13.812;2023-02-20T00:39:41;52666.00;;;-146.96;82.92
39105;BME280;46464;51.154;13.812;2023-02-20T00:42:08;52668.03;;;-146.96;83.17
39105;BME280;46464;51.154;13.812;2023-02-20T00:44:34;52678.22;;;-146.96;82.93
39105;BME280;46464;51.154;13.812;2023-02-20T00:47:01;52674.16;;;-146.96;82.66
39105;BME280;46464;51.154;13.812;2023-02-20T00:49:27;52668.03;;;-146.96;82.41
39105;BME280;46464;51.154;13.812;2023-02-20T00:51:54;52663.97;;;-146.96;82.31
39105;BME280;46464;51.154;13.812;2023-02-20T00:54:20;52674.16;;;-146.96;82.50
39105;BME280;46464;51.154;13.812;2023-02-20T00:56:47;52663.97;;;-146.96;83.21
39105;BME280;46464;51.154;13.812;2023-02-20T00:59:13;52645.66;;;-146.96;83.48
39105;BME280;46464;51.154;13.812;2023-02-20T01:01:40;52710.78;;;-146.96;83.61
39105;BME280;46464;51.154;13.812;2023-02-20T01:04:06;52680.25;;;-146.96;83.51
39105;BME280;46464;51.154;13.812;2023-02-20T01:06:33;52647.69;;;-146.96;83.41
39105;BME280;46464;51.154;13.812;2023-02-20T01:08:59;52639.56;;;-146.96;83.29
39105;BME280;46464;51.154;13.812;2023-02-20T01:11:26;52655.84;;;-146.96;83.15
39105;BME280;46464;51.154;13.812;2023-02-20T01:13:52;52621.25;;;-146.96;83.32
39105;BME280;46464;51.154;13.812;2023-02-20T01:16:19;52668.03;;;-146.96;83.15
39105;BME280;46464;51.154;13.812;2023-02-20T01:18:48;52623.28;;;-146.96;82.76
39105;BME280;46464;51.154;13.812;2023-02-20T01:21:15;52647.69;;;-146.96;82.66
39105;BME280;46464;51.154;13.812;2023-02-20T01:23:41;52623.28;;;-146.96;82.52
39105;BME280;46464;51.154;13.812;2023-02-20T01:26:07;52598.84;;;-146.96;82.74
39105;BME280;46464;51.154;13.812;2023-02-20T01:28:34;52645.66;;;-146.96;82.88
39105;BME280;46464;51.154;13.812;2023-02-20T01:31:00;52663.97;;;-146.96;82.61
39105;BME280;46464;51.154;13.812;2023-02-20T01:33:27;52645.66;;;-146.96;82.47
39105;BME280;46464;51.154;13.812;2023-02-20T01:35:53;52659.91;;;-146.96;82.15
39105;BME280;46464;51.154;13.812;2023-02-20T01:38:20;52621.25;;;-146.96;81.95
39105;BME280;46464;51.154;13.812;2023-02-20T01:40:48;52678.22;;;-146.96;82.03
39105;BME280;46464;51.154;13.812;2023-02-20T01:43:15;52647.69;;;-146.96;82.01
39105;BME280;46464;51.154;13.812;2023-02-20T01:45:42;52645.66;;;-146.96;81.83
39105;BME280;46464;51.154;13.812;2023-02-20T01:48:19;52607.00;;;-146.96;81.62
39105;BME280;46464;51.154;13.812;2023-02-20T01:50:47;52602.94;;;-146.96;81.85
39105;BME280;46464;51.154;13.812;2023-02-20T01:53:19;52617.16;;;-146.96;81.61
39105;BME280;46464;51.154;13.812;2023-02-20T01:55:53;52600.88;;;-146.96;81.66
39105;BME280;46464;51.154;13.812;2023-02-20T01:58:36;52611.06;;;-146.96;81.55
39105;BME280;46464;51.154;13.812;2023-02-20T02:01:05;52609.03;;;-146.96;81.68
39105;BME280;46464;51.154;13.812;2023-02-20T02:03:37;52615.13;;;-146.96;81.48
39105;BME280;46464;51.154;13.812;2023-02-20T02:06:06;52611.06;;;-146.96;81.42
39105;BME280;46464;51.154;13.812;2023-02-20T02:08:35;52619.22;;;-146.96;81.21
39105;BME280;46464;51.154;13.812;2023-02-20T02:11:06;52645.66;;;-146.96;81.42
39105;BME280;46464;51.154;13.812;2023-02-20T02:13:35;52609.03;;;-146.96;81.04
39105;BME280;46464;51.154;13.812;2023-02-20T02:25:40;52596.81;;;-146.96;82.16
39105;BME280;46464;51.154;13.812;2023-02-20T02:28:36;52621.25;;;-146.96;82.44
39105;BME280;46464;51.154;13.812;2023-02-20T02:34:35;52639.56;;;-146.96;82.62
39105;BME280;46464;51.154;13.812;2023-02-20T02:40:02;52602.94;;;-146.96;83.33
39105;BME280;46464;51.154;13.812;2023-02-20T02:43:12;52633.44;;;-146.96;83.61
39105;BME280;46464;51.154;13.812;2023-02-20T02:45:51;52655.84;;;-146.96;84.29
39105;BME280;46464;51.154;13.812;2023-02-20T02:51:19;52649.72;;;-146.96;85.08
39105;BME280;46464;51.154;13.812;2023-02-20T02:56:41;52578.50;;;-146.96;86.05
39105;BME280;46464;51.154;13.812;2023-02-20T02:59:09;52615.13;;;-146.96;86.05
39105;BME280;46464;51.154;13.812;2023-02-20T03:01:45;52586.66;;;-146.96;86.32
39105;BME280;46464;51.154;13.812;2023-02-20T03:04:13;52611.06;;;-146.96;86.52
39105;BME280;46464;51.154;13.812;2023-02-20T03:06:43;52582.56;;;-146.96;86.83
39105;BME280;46464;51.154;13.812;2023-02-20T03:09:16;52602.94;;;-146.96;86.90
39105;BME280;46464;51.154;13.812;2023-02-20T03:11:45;52611.06;;;-146.96;87.17
39105;BME280;46464;51.154;13.812;2023-02-20T03:14:20;52582.56;;;-146.96;86.99
39105;BME280;46464;51.154;13.812;2023-02-20T03:17:24;52602.94;;;-146.96;87.32
39105;BME280;46464;51.154;13.812;2023-02-20T03:19:59;52607.00;;;-146.96;87.02
39105;BME280;46464;51.154;13.812;2023-02-20T03:22:59;52584.63;;;-146.96;86.88
39105;BME280;46464;51.154;13.812;2023-02-20T03:25:53;52633.44;;;-146.96;86.42
39105;BME280;46464;51.154;13.812;2023-02-20T03:28:24;52558.16;;;-146.96;86.03
39105;BME280;46464;51.154;13.812;2023-02-20T03:33:45;52607.00;;;-146.96;85.31
39105;BME280;46464;51.154;13.812;2023-02-20T03:36:45;52594.78;;;-146.96;84.61
39105;BME280;46464;51.154;13.812;2023-02-20T03:39:33;52621.25;;;-146.96;84.13
39105;BME280;46464;51.154;13.812;2023-02-20T03:42:21;52604.97;;;-146.96;83.79
39105;BME280;46464;51.154;13.812;2023-02-20T03:45:08;52562.22;;;-146.96;83.32
39105;BME280;46464;51.154;13.812;2023-02-20T03:47:38;52598.84;;;-146.96;83.29
39105;BME280;46464;51.154;13.812;2023-02-20T03:50:08;52592.75;;;-146.96;82.96
39105;BME280;46464;51.154;13.812;2023-02-20T03:52:35;52576.47;;;-146.96;83.15
39105;BME280;46464;51.154;13.812;2023-02-20T03:55:02;52602.94;;;-146.96;82.84
39105;BME280;46464;51.154;13.812;2023-02-20T03:57:33;52594.78;;;-146.96;83.05
39105;BME280;46464;51.154;13.812;2023-02-20T04:00:05;52562.22;;;-146.96;83.11
39105;BME280;46464;51.154;13.812;2023-02-20T04:02:37;52572.41;;;-146.96;82.93
39105;BME280;46464;51.154;13.812;2023-02-20T04:05:10;52578.50;;;-146.96;83.18
39105;BME280;46464;51.154;13.812;2023-02-20T04:07:44;52590.72;;;-146.96;83.12
39105;BME280;46464;51.154;13.812;2023-02-20T04:10:18;52564.25;;;-146.96;83.40
39105;BME280;46464;51.154;13.812;2023-02-20T04:12:47;52611.06;;;-146.96;83.35
39105;BME280;46464;51.154;13.812;2023-02-20T04:15:16;52617.16;;;-146.96;83.38
39105;BME280;46464;51.154;13.812;2023-02-20T04:18:14;52582.56;;;-146.96;83.41
39105;BME280;46464;51.154;13.812;2023-02-20T04:20:41;52602.94;;;-146.96;83.45
39105;BME280;46464;51.154;13.812;2023-02-20T04:23:16;52580.53;;;-146.96;83.61
39105;BME280;46464;51.154;13.812;2023-02-20T04:25:50;52586.66;;;-146.96;83.85
39105;BME280;46464;51.154;13.812;2023-02-20T04:28:24;52545.94;;;-146.96;84.19
39105;BME280;46464;51.154;13.812;2023-02-20T04:30:52;52580.53;;;-146.96;84.33
39105;BME280;46464;51.154;13.812;2023-02-20T04:33:19;52556.13;;;-146.96;84.49
39105;BME280;46464;51.154;13.812;2023-02-20T04:35:46;52607.00;;;-146.96;84.15
39105;BME280;46464;51.154;13.812;2023-02-20T04:38:13;52543.91;;;-146.96;84.17
39105;BME280;46464;51.154;13.812;2023-02-20T04:40:39;52588.69;;;-146.96;84.07
39105;BME280;46464;51.154;13.812;2023-02-20T04:43:09;52564.25;;;-146.96;83.94
39105;BME280;46464;51.154;13.812;2023-02-20T04:45:35;52611.06;;;-146.96;83.49
39105;BME280;46464;51.154;13.812;2023-02-20T04:48:02;52607.00;;;-146.96;83.43
39105;BME280;46464;51.154;13.812;2023-02-20T04:50:33;52568.34;;;-146.96;83.27
39105;BME280;46464;51.154;13.812;2023-02-20T04:53:00;52586.66;;;-146.96;83.40
39105;BME280;46464;51.154;13.812;2023-02-20T04:55:27;52550.03;;;-146.96;82.99
39105;BME280;46464;51.154;13.812;2023-02-20T04:57:54;52598.84;;;-146.96;82.90
39105;BME280;46464;51.154;13.812;2023-02-20T05:00:22;52570.38;;;-146.96;82.96
39105;BME280;46464;51.154;13.812;2023-02-20T05:02:48;52572.41;;;-146.96;82.69
39105;BME280;46464;51.154;13.812;2023-02-20T05:05:21;52592.75;;;-146.96;82.69
39105;BME280;46464;51.154;13.812;2023-02-20T05:07:48;52615.13;;;-146.96;82.52
39105;BME280;46464;51.154;13.812;2023-02-20T05:10:16;52586.66;;;-146.96;82.57
39105;BME280;46464;51.154;13.812;2023-02-20T05:12:43;52619.22;;;-146.96;82.50
39105;BME280;46464;51.154;13.812;2023-02-20T05:15:10;52560.19;;;-146.96;82.37
39105;BME280;46464;51.154;13.812;2023-02-20T05:17:36;52576.47;;;-146.96;82.33
39105;BME280;46464;51.154;13.812;2023-02-20T05:20:04;52578.50;;;-146.96;82.53
39105;BME280;46464;51.154;13.812;2023-02-20T05:22:31;52541.88;;;-146.96;82.42
39105;BME280;46464;51.154;13.812;2023-02-20T05:24:58;52558.16;;;-146.96;82.52
39105;BME280;46464;51.154;13.812;2023-02-20T05:27:25;52556.13;;;-146.96;82.27
39105;BME280;46464;51.154;13.812;2023-02-20T05:29:52;52543.91;;;-146.96;82.44
39105;BME280;46464;51.154;13.812;2023-02-20T05:32:21;52552.06;;;-146.96;82.23
39105;BME280;46464;51.154;13.812;2023-02-20T05:34:47;52541.88;;;-146.96;82.33
39105;BME280;46464;51.154;13.812;2023-02-20T05:37:16;52580.53;;;-146.96;82.22
39105;BME280;46464;51.154;13.812;2023-02-20T05:39:44;52574.44;;;-146.96;82.36
39105;BME280;46464;51.154;13.812;2023-02-20T05:42:11;52547.97;;;-146.96;82.49
39105;BME280;46464;51.154;13.812;2023-02-20T05:44:38;52578.50;;;-146.96;81.87
39105;BME280;46464;51.154;13.812;2023-02-20T05:47:04;52570.38;;;-146.96;81.87
39105;BME280;46464;51.154;13.812;2023-02-20T05:49:33;52619.22;;;-146.96;81.47
39105;BME280;46464;51.154;13.812;2023-02-20T05:52:04;52574.44;;;-146.96;81.01
39105;BME280;46464;51.154;13.812;2023-02-20T05:54:38;52574.44;;;-146.96;80.83
39105;BME280;46464;51.154;13.812;2023-02-20T05:57:04;52580.53;;;-146.96;80.64
39105;BME280;46464;51.154;13.812;2023-02-20T05:59:31;52558.16;;;-146.96;80.36
39105;BME280;46464;51.154;13.812;2023-02-20T06:01:59;52574.44;;;-146.96;80.09
39105;BME280;46464;51.154;13.812;2023-02-20T06:04:26;52566.31;;;-146.96;79.90
39105;BME280;46464;51.154;13.812;2023-02-20T06:06:53;52543.91;;;-146.96;79.53
39105;BME280;46464;51.154;13.812;2023-02-20T06:09:20;52562.22;;;-146.96;79.38
39105;BME280;46464;51.154;13.812;2023-02-20T06:11:49;52562.22;;;-146.96;78.97
39105;BME280;46464;51.154;13.812;2023-02-20T06:14:18;52580.53;;;-146.96;78.91
39105;BME280;46464;51.154;13.812;2023-02-20T06:16:46;52572.41;;;-146.96;78.70
39105;BME280;46464;51.154;13.812;2023-02-20T06:19:21;52517.47;;;-146.96;78.64
39105;BME280;46464;51.154;13.812;2023-02-20T06:21:52;52568.34;;;-146.96;78.49
39105;BME280;46464;51.154;13.812;2023-02-20T06:24:20;52566.31;;;-146.96;78.36
39105;BME280;46464;51.154;13.812;2023-02-20T06:26:47;52521.53;;;-146.96;78.68
39105;BME280;46464;51.154;13.812;2023-02-20T06:29:15;52535.78;;;-146.96;78.47
39105;BME280;46464;51.154;13.812;2023-02-20T06:31:41;52570.38;;;-146.96;78.61
39105;BME280;46464;51.154;13.812;2023-02-20T06:34:09;52572.41;;;-146.96;78.40
39105;BME280;46464;51.154;13.812;2023-02-20T06:36:38;52547.97;;;-146.96;78.38
39105;BME280;46464;51.154;13.812;2023-02-20T06:39:07;52562.22;;;-146.96;77.82
39105;BME280;46464;51.154;13.812;2023-02-20T06:41:34;52566.31;;;-146.96;77.10
39105;BME280;46464;51.154;13.812;2023-02-20T06:44:01;52590.72;;;-146.96;77.12
39105;BME280;46464;51.154;13.812;2023-02-20T06:46:29;52533.75;;;-146.96;76.68
39105;BME280;46464;51.154;13.812;2023-02-20T06:48:57;52535.78;;;-146.96;76.85
39105;BME280;46464;51.154;13.812;2023-02-20T06:51:29;52515.44;;;-146.96;76.55
39105;BME280;46464;51.154;13.812;2023-02-20T06:53:57;52554.09;;;-146.96;75.77
39105;BME280;46464;51.154;13.812;2023-02-20T06:56:26;52543.91;;;-146.96;75.27
39105;BME280;46464;51.154;13.812;2023-02-20T06:58:54;52556.13;;;-146.96;75.25
39105;BME280;46464;51.154;13.812;2023-02-20T07:01:24;52554.09;;;-146.96;74.84
39105;BME280;46464;51.154;13.812;2023-02-20T07:03:52;52525.59;;;-146.96;74.90
39105;BME280;46464;51.154;13.812;2023-02-20T07:06:21;52533.75;;;-146.96;75.11
39105;BME280;46464;51.154;13.812;2023-02-20T07:08:48;52541.88;;;-146.96;74.58
39105;BME280;46464;51.154;13.812;2023-02-20T07:11:16;52562.22;;;-146.96;74.59
39105;BME280;46464;51.154;13.812;2023-02-20T07:13:43;52513.41;;;-146.96;74.39
39105;BME280;46464;51.154;13.812;2023-02-20T07:16:10;52525.59;;;-146.96;73.71
39105;BME280;46464;51.154;13.812;2023-02-20T07:18:37;52547.97;;;-146.96;72.72
39105;BME280;46464;51.154;13.812;2023-02-20T07:21:04;52554.09;;;-146.96;72.13
39105;BME280;46464;51.154;13.812;2023-02-20T07:23:30;52539.84;;;-146.96;71.39
39105;BME280;46464;51.154;13.812;2023-02-20T07:25:57;52521.53;;;-146.96;70.64
39105;BME280;46464;51.154;13.812;2023-02-20T07:28:24;52558.16;;;-146.96;70.68
39105;BME280;46464;51.154;13.812;2023-02-20T07:30:50;52541.88;;;-146.96;70.55
39105;BME280;46464;51.154;13.812;2023-02-20T07:33:17;52543.91;;;-146.96;70.58
39105;BME280;46464;51.154;13.812;2023-02-20T07:35:44;52521.53;;;-146.96;69.23
39105;BME280;46464;51.154;13.812;2023-02-20T07:38:11;52509.31;;;-146.96;69.06
39105;BME280;46464;51.154;13.812;2023-02-20T07:40:38;52519.50;;;-146.96;68.18
39105;BME280;46464;51.154;13.812;2023-02-20T07:43:06;52503.22;;;-146.96;67.76
39105;BME280;46464;51.154;13.812;2023-02-20T07:45:32;52515.44;;;-146.96;67.46
39105;BME280;46464;51.154;13.812;2023-02-20T07:47:59;52505.25;;;-146.96;67.10
39105;BME280;46464;51.154;13.812;2023-02-20T07:50:26;52491.00;;;-146.96;65.76
39105;BME280;46464;51.154;13.812;2023-02-20T07:52:52;52513.41;;;-146.96;65.26
39105;BME280;46464;51.154;13.812;2023-02-20T07:55:19;52497.13;;;-146.96;64.63
39105;BME280;46464;51.154;13.812;2023-02-20T07:57:47;52484.91;;;-146.96;64.56
39105;BME280;46464;51.154;13.812;2023-02-20T08:00:18;52525.59;;;-146.96;64.77
39105;BME280;46464;51.154;13.812;2023-02-20T08:02:45;52513.41;;;-146.96;64.79
39105;BME280;46464;51.154;13.812;2023-02-20T08:05:12;52495.06;;;-146.96;64.64
39105;BME280;46464;51.154;13.812;2023-02-20T08:07:44;52482.88;;;-146.96;64.48
39105;BME280;46464;51.154;13.812;2023-02-20T08:10:14;52515.44;;;-146.96;64.71
39105;BME280;46464;51.154;13.812;2023-02-20T08:12:42;52495.06;;;-146.96;64.58
39105;BME280;46464;51.154;13.812;2023-02-20T08:15:08;52515.44;;;-146.96;63.63
39105;BME280;46464;51.154;13.812;2023-02-20T08:17:39;52505.25;;;-146.96;63.70
39105;BME280;46464;51.154;13.812;2023-02-20T08:20:14;52458.44;;;-146.96;63.46
39105;BME280;46464;51.154;13.812;2023-02-20T08:22:46;52515.44;;;-146.96;63.43
39105;BME280;46464;51.154;13.812;2023-02-20T08:25:13;52525.59;;;-146.96;62.48
39105;BME280;46464;51.154;13.812;2023-02-20T08:27:46;52499.16;;;-146.96;62.57
39105;BME280;46464;51.154;13.812;2023-02-20T08:30:21;52499.16;;;-146.96;61.64
39105;BME280;46464;51.154;13.812;2023-02-20T08:32:50;52452.34;;;-146.96;62.30
39105;BME280;46464;51.154;13.812;2023-02-20T08:35:18;52505.25;;;-146.96;62.07
39105;BME280;46464;51.154;13.812;2023-02-20T08:37:45;52478.81;;;-146.96;60.83
39105;BME280;46464;51.154;13.812;2023-02-20T08:40:12;52472.69;;;-146.96;61.39
39105;BME280;46464;51.154;13.812;2023-02-20T08:42:38;52462.53;;;-146.96;61.17
39105;BME280;46464;51.154;13.812;2023-02-20T08:45:06;52486.94;;;-146.96;61.10
39105;BME280;46464;51.154;13.812;2023-02-20T08:47:34;52474.72;;;-146.96;61.01
39105;BME280;46464;51.154;13.812;2023-02-20T08:50:01;52456.41;;;-146.96;60.43
39105;BME280;46464;51.154;13.812;2023-02-20T08:52:27;52474.72;;;-146.96;61.04
39105;BME280;46464;51.154;13.812;2023-02-20T08:54:54;52472.69;;;-146.96;61.22
39105;BME280;46464;51.154;13.812;2023-02-20T08:57:21;52442.19;;;-146.96;60.91
39105;BME280;46464;51.154;13.812;2023-02-20T08:59:47;52460.50;;;-146.96;60.23
39105;BME280;46464;51.154;13.812;2023-02-20T09:02:22;52484.91;;;-146.96;60.72
39105;BME280;46464;51.154;13.812;2023-02-20T09:04:55;52482.88;;;-146.96;60.19
39105;BME280;46464;51.154;13.812;2023-02-20T09:07:22;52432.00;;;-146.96;60.57
39105;BME280;46464;51.154;13.812;2023-02-20T09:09:48;52456.41;;;-146.96;60.58
39105;BME280;46464;51.154;13.812;2023-02-20T09:12:16;52432.00;;;-146.96;60.74
39105;BME280;46464;51.154;13.812;2023-02-20T09:14:44;52458.44;;;-146.96;60.81
39105;BME280;46464;51.154;13.812;2023-02-20T09:17:10;52436.06;;;-146.96;60.09
39105;BME280;46464;51.154;13.812;2023-02-20T09:19:37;52434.03;;;-146.96;59.90
39105;BME280;46464;51.154;13.812;2023-02-20T09:22:04;52425.91;;;-146.96;60.64
39105;BME280;46464;51.154;13.812;2023-02-20T09:24:30;52411.66;;;-146.96;59.26
39105;BME280;46464;51.154;13.812;2023-02-20T09:27:01;52446.25;;;-146.96;59.27
39105;BME280;46464;51.154;13.812;2023-02-20T09:29:28;52415.72;;;-146.96;58.91
39105;BME280;46464;51.154;13.812;2023-02-20T09:31:54;52413.69;;;-146.96;58.74
39105;BME280;46464;51.154;13.812;2023-02-20T09:34:22;52432.00;;;-146.96;59.33
39105;BME280;46464;51.154;13.812;2023-02-20T09:36:48;52421.81;;;-146.96;59.63
39105;BME280;46464;51.154;13.812;2023-02-20T09:39:15;52419.78;;;-146.96;59.21
39105;BME280;46464;51.154;13.812;2023-02-20T09:42:30;52411.66;;;-146.96;59.31
39105;BME280;46464;51.154;13.812;2023-02-20T09:44:49;52423.88;;;-146.96;59.44
39105;BME280;46464;51.154;13.812;2023-02-20T09:50:33;52425.91;;;-146.96;58.69
39105;BME280;46464;51.154;13.812;2023-02-20T09:53:15;52421.81;;;-146.96;58.36
39105;BME280;46464;51.154;13.812;2023-02-20T09:55:45;52421.81;;;-146.96;57.24
39105;BME280;46464;51.154;13.812;2023-02-20T09:58:38;52411.66;;;-146.96;57.64
39105;BME280;46464;51.154;13.812;2023-02-20T10:01:07;52397.41;;;-146.96;57.83
39105;BME280;46464;51.154;13.812;2023-02-20T10:03:55;52399.44;;;-146.96;56.08
39105;BME280;46464;51.154;13.812;2023-02-20T10:06:26;52387.22;;;-146.96;56.09
39105;BME280;46464;51.154;13.812;2023-02-20T10:08:53;52403.50;;;-146.96;56.63
39105;BME280;46464;51.154;13.812;2023-02-20T10:11:43;52346.53;;;-146.96;56.06
39105;BME280;46464;51.154;13.812;2023-02-20T10:19:49;52389.28;;;-146.96;55.57
39105;BME280;46464;51.154;13.812;2023-02-20T10:22:35;52389.28;;;-146.96;55.28
39105;BME280;46464;51.154;13.812;2023-02-20T10:28:13;52375.03;;;-146.96;55.37
39105;BME280;46464;51.154;13.812;2023-02-20T10:30:59;52403.50;;;-146.96;55.26
39105;BME280;46464;51.154;13.812;2023-02-20T10:33:37;52387.22;;;-146.96;54.71
39105;BME280;46464;51.154;13.812;2023-02-20T10:36:22;52387.22;;;-146.96;54.97
39105;BME280;46464;51.154;13.812;2023-02-20T10:38:54;52368.94;;;-146.96;55.78
39105;BME280;46464;51.154;13.812;2023-02-20T10:41:27;52397.41;;;-146.96;55.50
39105;BME280;46464;51.154;13.812;2023-02-20T10:50:18;52401.47;;;-146.96;55.14
39105;BME280;46464;51.154;13.812;2023-02-20T10:52:51;52399.44;;;-146.96;55.16
39105;BME280;46464;51.154;13.812;2023-02-20T10:55:27;52350.59;;;-146.96;55.16
39105;BME280;46464;51.154;13.812;2023-02-20T10:58:03;52362.81;;;-146.96;54.86
39105;BME280;46464;51.154;13.812;2023-02-20T11:00:39;52379.09;;;-146.96;55.05
39105;BME280;46464;51.154;13.812;2023-02-20T11:03:14;52356.72;;;-146.96;54.97
39105;BME280;46464;51.154;13.812;2023-02-20T11:05:48;52373.00;;;-146.96;54.81
39105;BME280;46464;51.154;13.812;2023-02-20T11:08:16;52358.75;;;-146.96;54.63
39105;BME280;46464;51.154;13.812;2023-02-20T11:10:48;52336.38;;;-146.96;54.47
39105;BME280;46464;51.154;13.812;2023-02-20T11:13:17;52344.50;;;-146.96;53.96
39105;BME280;46464;51.154;13.812;2023-02-20T11:15:49;52338.41;;;-146.96;54.52
39105;BME280;46464;51.154;13.812;2023-02-20T11:18:23;52356.72;;;-146.96;53.76
39105;BME280;46464;51.154;13.812;2023-02-20T11:20:52;52352.66;;;-146.96;54.14
39105;BME280;46464;51.154;13.812;2023-02-20T11:28:41;52336.38;;;-146.96;53.96
39105;BME280;46464;51.154;13.812;2023-02-20T11:31:08;52352.66;;;-146.96;52.52
39105;BME280;46464;51.154;13.812;2023-02-20T11:33:41;52338.41;;;-146.96;52.52
39105;BME280;46464;51.154;13.812;2023-02-20T11:36:16;52332.28;;;-146.96;52.78
39105;BME280;46464;51.154;13.812;2023-02-20T11:38:46;52348.56;;;-146.96;52.99
39105;BME280;46464;51.154;13.812;2023-02-20T11:41:26;52383.16;;;-146.96;51.59
39105;BME280;46464;51.154;13.812;2023-02-20T11:44:20;52340.44;;;-146.96;51.07
39105;BME280;46464;51.154;13.812;2023-02-20T11:46:47;52307.88;;;-146.96;51.21
39105;BME280;46464;51.154;13.812;2023-02-20T11:49:26;52346.53;;;-146.96;51.15
39105;BME280;46464;51.154;13.812;2023-02-20T11:52:07;52313.97;;;-146.96;50.92
39105;BME280;46464;51.154;13.812;2023-02-20T11:54:34;52362.81;;;-146.96;51.26
39105;BME280;46464;51.154;13.812;2023-02-20T11:57:22;52340.44;;;-146.96;51.30
39105;BME280;46464;51.154;13.812;2023-02-20T12:00:08;52316.03;;;-146.96;50.46
39105;BME280;46464;51.154;13.812;2023-02-20T12:02:35;52301.78;;;-146.96;50.04
39105;BME280;46464;51.154;13.812;2023-02-20T12:05:12;52328.22;;;-146.96;49.94
39105;BME280;46464;51.154;13.812;2023-02-20T12:13:01;52299.75;;;-146.96;50.65
39105;BME280;46464;51.154;13.812;2023-02-20T12:15:29;52330.25;;;-146.96;50.33
39105;BME280;46464;51.154;13.812;2023-02-20T12:20:36;52269.22;;;-146.96;50.99
39105;BME280;46464;51.154;13.812;2023-02-20T12:26:16;52287.53;;;-146.96;49.53
39105;BME280;46464;51.154;13.812;2023-02-20T12:29:10;52289.56;;;-146.96;50.01
39105;BME280;46464;51.154;13.812;2023-02-20T12:40:00;52301.78;;;-146.96;50.52
39105;BME280;46464;51.154;13.812;2023-02-20T12:42:31;52277.34;;;-146.96;49.59
39105;BME280;46464;51.154;13.812;2023-02-20T12:47:39;52248.88;;;-146.96;50.70
39105;BME280;46464;51.154;13.812;2023-02-20T12:50:48;52293.63;;;-146.96;50.61
39105;BME280;46464;51.154;13.812;2023-02-20T12:53:23;52289.56;;;-146.96;50.28
39105;BME280;46464;51.154;13.812;2023-02-20T12:56:03;52303.81;;;-146.96;51.29
39105;BME280;46464;51.154;13.812;2023-02-20T13:01:12;52279.41;;;-146.96;50.49
39105;BME280;46464;51.154;13.812;2023-02-20T13:06:29;52281.44;;;-146.96;50.68
39105;BME280;46464;51.154;13.812;2023-02-20T13:09:13;52289.56;;;-146.96;50.39
39105;BME280;46464;51.154;13.812;2023-02-20T13:11:47;52291.59;;;-146.96;50.95
39105;BME280;46464;51.154;13.812;2023-02-20T13:14:18;52269.22;;;-146.96;50.84
39105;BME280;46464;51.154;13.812;2023-02-20T13:17:25;52285.50;;;-146.96;50.61
39105;BME280;46464;51.154;13.812;2023-02-20T13:20:27;52277.34;;;-146.96;51.15
39105;BME280;46464;51.154;13.812;2023-02-20T13:25:46;52313.97;;;-146.96;51.89
39105;BME280;46464;51.154;13.812;2023-02-20T13:31:06;52283.47;;;-146.96;51.32
39105;BME280;46464;51.154;13.812;2023-02-20T13:33:34;52305.84;;;-146.96;51.28
39105;BME280;46464;51.154;13.812;2023-02-20T13:36:03;52295.66;;;-146.96;51.42
39105;BME280;46464;51.154;13.812;2023-02-20T13:38:31;52250.91;;;-146.96;52.06
39105;BME280;46464;51.154;13.812;2023-02-20T13:41:08;52285.50;;;-146.96;51.78
39105;BME280;46464;51.154;13.812;2023-02-20T13:43:35;52269.22;;;-146.96;52.38
39105;BME280;46464;51.154;13.812;2023-02-20T13:53:51;52267.19;;;-146.96;52.74
39105;BME280;46464;51.154;13.812;2023-02-20T13:56:23;52252.94;;;-146.96;52.37
39105;BME280;46464;51.154;13.812;2023-02-20T13:58:52;52265.16;;;-146.96;52.97
39105;BME280;46464;51.154;13.812;2023-02-20T14:01:19;52279.41;;;-146.96;52.65
39105;BME280;46464;51.154;13.812;2023-02-20T14:03:59;52297.72;;;-146.96;53.02
39105;BME280;46464;51.154;13.812;2023-02-20T14:06:26;52313.97;;;-146.96;52.76
39105;BME280;46464;51.154;13.812;2023-02-20T14:09:07;52283.47;;;-146.96;52.76
39105;BME280;46464;51.154;13.812;2023-02-20T14:11:37;52263.13;;;-146.96;53.11
39105;BME280;46464;51.154;13.812;2023-02-20T14:14:28;52307.88;;;-146.96;52.74
39105;BME280;46464;51.154;13.812;2023-02-20T14:17:15;52277.34;;;-146.96;52.45
39105;BME280;46464;51.154;13.812;2023-02-20T14:19:47;52263.13;;;-146.96;53.20